Esquina — 2DOU6 — position and weather

sailwx.info

Track history (hours):
 
Tides and Currents Weather Stations Pressure Air Temp Water Temp Dewpoint Dewpoint Depression Visibility Wind Speed Wind Dir Waves Ship Positions

Esquina

Last reported at 2016-Jan-29 14:18 UTC. Time now 2016-Feb-12 16:08 UTC.
Position N 47°43' W 003°21'.
Warning: this ship's position is 14 days out of date.

Type: Other ship. MMSI: 235080801.

Date/timePositionNaut miles runAvg speedWind from/ knotsBaromVisibWave heightAir tempDewpointWater temp
2016-Jan-29 14:18N 47°43' W 003°21'0 0.0
2016-Jan-29 13:33N 47°43' W 003°21'0 0.0
2016-Jan-29 12:33N 47°43' W 003°21'0 0.0
2016-Jan-29 11:33N 47°43' W 003°21'0 0.0
2016-Jan-29 10:33N 47°43' W 003°21'0 0.0
2016-Jan-29 09:32N 47°43' W 003°21'3 3.4
2016-Jan-29 08:33N 47°40' W 003°19'3 2.7
2016-Jan-29 07:33N 47°41' W 003°22'1 0.1
2016-Jan-28 19:33N 47°43' W 003°21'3 3.2
2016-Jan-28 18:33N 47°40' W 003°20'2 2.1
2016-Jan-28 17:33N 47°39' W 003°17'5 4.4
2016-Jan-28 16:31N 47°43' W 003°21'0 0.0
2016-Jan-28 15:31N 47°43' W 003°21'5 4.7
2016-Jan-28 14:31N 47°39' W 003°18'1 0.6
2016-Jan-28 13:34N 47°39' W 003°19'1 1.1
2016-Jan-28 12:32N 47°40' W 003°19'3 3.2
2016-Jan-28 11:33N 47°43' W 003°21'3 3.3
2016-Jan-28 10:33N 47°40' W 003°20'0 0.2
2016-Jan-28 09:33N 47°40' W 003°20'1 0.6
2016-Jan-28 08:33N 47°39' W 003°19'0 0.5
2016-Jan-28 07:33N 47°39' W 003°20'4 3.7
2016-Jan-28 06:33N 47°43' W 003°22'0 0.0
2016-Jan-27 13:31N 47°43' W 003°21'0 0.0
2016-Jan-27 12:31N 47°43' W 003°21'0 0.0
2016-Jan-27 11:31N 47°43' W 003°21'0 0.0
2016-Jan-27 10:31N 47°43' W 003°21'0 0.0
2016-Jan-27 09:31N 47°43' W 003°21'0 0.0
2016-Jan-27 08:31N 47°43' W 003°21'0 0.0
2016-Jan-27 07:31N 47°43' W 003°21'0 0.0
2016-Jan-27 06:31N 47°43' W 003°21'0 0.0
2016-Jan-26 20:17N 47°43' W 003°21'3 3.8
2016-Jan-26 19:33N 47°40' W 003°19'0 0.1
2016-Jan-26 18:33N 47°40' W 003°19'0 0.2
2016-Jan-26 17:33N 47°40' W 003°19'0 0.3
2016-Jan-26 16:33N 47°40' W 003°19'0 0.3
2016-Jan-26 15:33N 47°40' W 003°19'0 0.1
2016-Jan-26 14:33N 47°40' W 003°19'0 0.1
2016-Jan-26 13:33N 47°40' W 003°19'1 0.8
2016-Jan-26 12:33N 47°40' W 003°20'3 3.1
2016-Jan-26 11:33N 47°43' W 003°21'3 2.7
2016-Jan-26 10:33N 47°40' W 003°20'0 0.5
2016-Jan-26 09:33N 47°40' W 003°20'1 0.6
2016-Jan-26 08:33N 47°40' W 003°20'1 1.5
2016-Jan-26 07:33N 47°39' W 003°18'4 4.2
2016-Jan-26 06:31N 47°43' W 003°21'3 0.2
2016-Jan-25 15:33N 47°40' W 003°19'0 0.2
2016-Jan-25 14:33N 47°40' W 003°19'0 0.1
2016-Jan-25 13:33N 47°40' W 003°20'0 0.2
2016-Jan-25 12:33N 47°40' W 003°19'0 0.4
2016-Jan-25 11:33N 47°40' W 003°20'0 0.4
2016-Jan-25 10:33N 47°40' W 003°20'0 0.1
2016-Jan-25 09:31N 47°40' W 003°20'2 2.2
2016-Jan-25 08:33N 47°39' W 003°17'1 0.9
2016-Jan-25 07:33N 47°39' W 003°18'4 4.2
2016-Jan-25 06:33N 47°43' W 003°21'  
2016-Jan-19 18:33N 47°39' W 003°20'1 1.2
2016-Jan-19 17:33N 47°39' W 003°18'3 3.0
2016-Jan-19 16:33N 47°41' W 003°22'4 4.0
2016-Jan-19 15:34N 47°39' W 003°17'0 0.1
2016-Jan-19 14:33N 47°39' W 003°17'  
Track history (hours):
 
Tides and Currents Weather Stations Pressure Air Temp Water Temp Dewpoint Dewpoint Depression Visibility Wind Speed Wind Dir Waves Ship Positions

Esquina

Last reported at 2016-Jan-29 14:18 UTC. Time now 2016-Feb-12 16:08 UTC.
Position N 47°43' W 003°21'.
Warning: this ship's position is 14 days out of date.

Type: Other ship. MMSI: 235080801.

Date/timePositionNaut miles runAvg speedWind from/ knotsBaromVisibWave heightAir tempDewpointWater temp
2016-Jan-29 14:18N 47°43' W 003°21'0 0.0
2016-Jan-29 13:33N 47°43' W 003°21'0 0.0
2016-Jan-29 12:33N 47°43' W 003°21'0 0.0
2016-Jan-29 11:33N 47°43' W 003°21'0 0.0
2016-Jan-29 10:33N 47°43' W 003°21'0 0.0
2016-Jan-29 09:32N 47°43' W 003°21'3 3.4
2016-Jan-29 08:33N 47°40' W 003°19'3 2.7
2016-Jan-29 07:33N 47°41' W 003°22'1 0.1
2016-Jan-28 19:33N 47°43' W 003°21'3 3.2
2016-Jan-28 18:33N 47°40' W 003°20'2 2.1
2016-Jan-28 17:33N 47°39' W 003°17'5 4.4
2016-Jan-28 16:31N 47°43' W 003°21'0 0.0
2016-Jan-28 15:31N 47°43' W 003°21'5 4.7
2016-Jan-28 14:31N 47°39' W 003°18'1 0.6
2016-Jan-28 13:34N 47°39' W 003°19'1 1.1
2016-Jan-28 12:32N 47°40' W 003°19'3 3.2
2016-Jan-28 11:33N 47°43' W 003°21'3 3.3
2016-Jan-28 10:33N 47°40' W 003°20'0 0.2
2016-Jan-28 09:33N 47°40' W 003°20'1 0.6
2016-Jan-28 08:33N 47°39' W 003°19'0 0.5
2016-Jan-28 07:33N 47°39' W 003°20'4 3.7
2016-Jan-28 06:33N 47°43' W 003°22'0 0.0
2016-Jan-27 13:31N 47°43' W 003°21'0 0.0
2016-Jan-27 12:31N 47°43' W 003°21'0 0.0
2016-Jan-27 11:31N 47°43' W 003°21'0 0.0
2016-Jan-27 10:31N 47°43' W 003°21'0 0.0
2016-Jan-27 09:31N 47°43' W 003°21'0 0.0
2016-Jan-27 08:31N 47°43' W 003°21'0 0.0
2016-Jan-27 07:31N 47°43' W 003°21'0 0.0
2016-Jan-27 06:31N 47°43' W 003°21'0 0.0
2016-Jan-26 20:17N 47°43' W 003°21'3 3.8
2016-Jan-26 19:33N 47°40' W 003°19'0 0.1
2016-Jan-26 18:33N 47°40' W 003°19'0 0.2
2016-Jan-26 17:33N 47°40' W 003°19'0 0.3
2016-Jan-26 16:33N 47°40' W 003°19'0 0.3
2016-Jan-26 15:33N 47°40' W 003°19'0 0.1
2016-Jan-26 14:33N 47°40' W 003°19'0 0.1
2016-Jan-26 13:33N 47°40' W 003°19'1 0.8
2016-Jan-26 12:33N 47°40' W 003°20'3 3.1
2016-Jan-26 11:33N 47°43' W 003°21'3 2.7
2016-Jan-26 10:33N 47°40' W 003°20'0 0.5
2016-Jan-26 09:33N 47°40' W 003°20'1 0.6
2016-Jan-26 08:33N 47°40' W 003°20'1 1.5
2016-Jan-26 07:33N 47°39' W 003°18'4 4.2
2016-Jan-26 06:31N 47°43' W 003°21'3 0.2
2016-Jan-25 15:33N 47°40' W 003°19'0 0.2
2016-Jan-25 14:33N 47°40' W 003°19'0 0.1
2016-Jan-25 13:33N 47°40' W 003°20'0 0.2
2016-Jan-25 12:33N 47°40' W 003°19'0 0.4
2016-Jan-25 11:33N 47°40' W 003°20'0 0.4
2016-Jan-25 10:33N 47°40' W 003°20'0 0.1
2016-Jan-25 09:31N 47°40' W 003°20'2 2.2
2016-Jan-25 08:33N 47°39' W 003°17'1 0.9
2016-Jan-25 07:33N 47°39' W 003°18'4 4.2
2016-Jan-25 06:33N 47°43' W 003°21'  
2016-Jan-19 18:33N 47°39' W 003°20'1 1.2
2016-Jan-19 17:33N 47°39' W 003°18'3 3.0
2016-Jan-19 16:33N 47°41' W 003°22'4 4.0
2016-Jan-19 15:34N 47°39' W 003°17'0 0.1
2016-Jan-19 14:33N 47°39' W 003°17'  

Dump ship's entire track history